Terminal Aerodrome Forecast
Issued by NWS

Home | Current Version | Previous Version | Text Only | Print | Product List | Glossary Off
Versions: 1 2 3 4 5 6 7 8 9 10 11 12 13 14 15 16 17 18

000
FTUS43 KMPX 210500
TAFRNH
TAF
KRNH 210520Z 2106/2206 17008KT P6SM BKN050
     FM210900 18007KT P6SM SCT045
      TEMPO 2110/2112 4SM BR FEW010
     FM211400 17009G15KT P6SM FEW080 SCT150
     FM220400 16008KT P6SM VCSH FEW040 OVC150 PROB30 2205/2206
      27020G30KT 3SM TSRA FEW040CB OVC150=

USA.gov is the U.S. government's official web portal to all federal, state and local government web resources and services.